High Wych Weather

NOAA Style Reports for High Wych, Hertfordshire


Report for 2012 May
                   Monthly Climatological Summary for May 2012

Name: High Wych Weather   City: High Wych, Sawbridgeworth   State: Herts
Elevation: 72 m  Lat: N 51° 48' 26"   Lon: E 000° 07' 20"

                  Temperature (°C), Rain (mm), Wind Speed (mph)

                                      Heat  Cool        Avg
    Mean                              Deg   Deg         Wind                 Dom
Day Temp  High   Time   Low    Time   Days  Days  Rain  Speed High   Time    Dir
----------------------------------------------------------------------------------
 1  14.1  18.0   00:00  10.2   00:00   0.0   0.0   8.4  ----  15.6   00:00   ---
 2  11.2  14.5   00:00   7.8   00:00   0.0   0.0   3.8  ----  13.9   00:00   ---
 3   7.6   8.5   16:59   6.7   16:50   0.0   0.0   6.4  ----  15.6   00:00   ---
 4   7.8   9.4   00:00   6.1   00:00   0.0   0.0   0.0  ----  11.4   00:00   ---
 5   8.5  11.8   00:00   5.2   00:00   0.0   0.0   0.0  ----  16.3   00:00   ---
 6   7.1  10.4   00:00   3.8   00:00   0.0   0.0   0.0  ----   9.1   00:00   ---
 7   9.4  15.6   00:00   3.1   00:00   0.0   0.0   1.3  ----  10.8   00:00   ---
 8  15.2  20.4   00:00   9.9   00:00   0.0   0.0   1.8  ----  10.3   00:00   ---
 9  13.1  16.8   00:00   9.3   00:00   0.0   0.0   3.6  ----  10.8   00:00   ---
10  17.4  21.0   00:00  13.7   00:01   0.0   0.0   6.4  ----  16.9   00:00   ---
11  11.5  18.4   00:00   4.6   00:00   0.0   0.0   0.0  ----  13.3   00:00   ---
12   9.5  16.5   00:00   2.5   00:00   0.0   0.0   0.0  ----  13.3   00:00   ---
13  11.6  21.4   00:00   1.7   00:00   0.0   0.0   0.0  ----  10.8   00:00   ---
14   8.7  13.1   00:00   4.3   00:00   0.0   0.0   6.4  ----  10.3   00:00   ---
15   7.6  13.3   00:00   1.9   00:00   0.0   0.0   3.6  ----  17.5   00:00   ---
16   9.1  17.2   00:00   1.0   00:00   0.0   0.0   0.3  ----   9.1   00:00   ---
17  11.7  16.7   00:00   6.6   00:00   0.0   0.0   0.0  ----  10.8   00:00   ---
18  13.9  19.6   00:00   8.3   00:00   0.0   0.0   0.0  ----  13.3   00:00   ---
19  15.5  19.9   00:00  11.1   00:00   0.0   0.0   0.5  ----   6.6   00:00   ---
20  13.7  19.3   00:00   8.1   00:00   0.0   0.0   0.5  ----  17.5   00:00   ---
21  12.4  16.4   00:00   8.5   00:00   0.0   0.0   0.0  ----  16.3   00:00   ---
22  17.5  25.0   00:00  10.0   00:00   0.0   0.0   0.0  ----  18.8   00:00   ---
23  17.2  23.9   00:00  10.4   00:00   0.0   0.0   0.0  ----  10.8   00:00   ---
24  19.4  27.1   00:00  11.7   00:00   0.0   0.0   0.0  ----   9.1   00:00   ---
25  20.1  26.7   00:00  13.5   00:00   0.0   0.0   0.0  ----  23.0   00:00   ---
26  19.5  26.3   00:00  12.7   00:00   0.0   0.0   0.0  ----  19.4   00:00   ---
27  19.7  28.2   00:00  11.2   00:00   0.0   0.0   0.0  ----  13.9   00:00   ---
28  19.8  29.3   13:44  10.3   00:00   0.0   0.0   0.0  ----   7.2   00:00   ---
29  16.8  22.4   00:00  11.1   00:00   0.0   0.0   0.0  ----  10.8   00:00   ---
30  19.5  28.7   00:00  10.2   00:00   0.0   0.0   0.0  ----   9.1   00:00   ---
31  16.6  21.4   00:00  11.7   00:00   0.0   0.0   0.0  ----  10.3   00:00   ---
----------------------------------------------------------------------------------
    13.6  29.3    28     1.0    16     0.0   0.0  43.0  ----  23.0    25     ---

Max >=  27.0:  4
Max <=   0.0:  0
Min <=   0.0:  0
Min <=  -5.0:  0
Max Rain: 8.4 on day 1
Days of Rain: 12 (>= 0.2 mm)  7 (>= 2.0 mm)  0 (>= 15.0 mm)
Heat Base: 15.0  Cool Base: 15.0  Method: Integration
:now::gauges::console::today/yesterday::month/year::records: noaa reports::annual data::wind map::monthly records::trends::longrange forecast::rainfall radar::webcam